Nearby METAR Reports

 

KPBH - Phillips, Wisconsin, USA
Distance from station: SE 13mi, 21km
Updated: 12/18/2017 10:35am
Mist, Overcast
Mist, Overcast
 Wind from SW
Wind: SW 7 mph , 11 km/h
Temperature: 27°F , -3°C
Wind Chill: 19°F , -7°C
Dew Point: 27°F , -3°C
Humidity: 100%
Barometer: 29.76 inHg , 1007.8 hPa
Summary: Mist
Clouds: Overcast
Visibility: 3 miles , 5 km
Cloud details: Overcast 300 ft
2017/12/18 16:35 KPBH 181635Z AUTO 22006KT 3SM BR OVC003 M03/M03 A2976 RMK AO2 T10351035
KRCX - Ladysmith/Rusk, Wisconsin, USA
Distance from station: SW 29mi, 46km
Updated: 12/18/2017 10:35am
Mist, Overcast
Mist, Overcast
 Wind from S
Wind: S 7 mph , 11 km/h
Temperature: 28°F , -2°C
Wind Chill: 21°F , -6°C
Dew Point: 28°F , -2°C
Humidity: 100%
Barometer: 29.80 inHg , 1009.1 hPa
Summary: Mist
Clouds: Overcast
Visibility: 2 1/2 miles , 2 km
Cloud details: Overcast 400 ft
2017/12/18 16:35 KRCX 181635Z AUTO 19006KT 2 1/2SM BR OVC004 M02/M02 A2980 RMK AO2 T10171020
 
KD25 - Manitowish Water, Wisconsin, USA
Distance from station: ENE 41mi, 66km
Updated: 12/18/2017 10:35am
Mist, Overcast
Mist, Overcast
 Wind from SSW
Wind: SSW 8 mph , 13 km/h
Temperature: 25°F , -4°C
Wind Chill: 16°F , -9°C
Dew Point: 25°F , -4°C
Humidity: 100%
Barometer: 29.73 inHg , 1006.8 hPa
Summary: Mist
Clouds: Overcast
Visibility: 4 miles , 6 km
Cloud details: Overcast 300 ft
2017/12/18 16:35 KD25 181635Z AUTO 21007KT 4SM BR OVC003 M04/M04 A2973 RMK AO2 T10361036
KHYR - Hayward, Wisconsin, USA
Distance from station: WNW 42mi, 68km
Updated: 12/18/2017 10:32am
Mist, Overcast
Mist, Overcast
 Wind from S
Wind: S 13 mph , 20 km/h
Temperature: 28°F , -2°C
Wind Chill: 17°F , -8°C
Dew Point: 25°F , -4°C
Humidity: 86%
Barometer: 29.74 inHg , 1007.1 hPa
Summary: Mist
Clouds: Overcast
Visibility: 5 miles , 8 km
Cloud details: Partly cloudy 800 ft
Overcast 3400 ft
2017/12/18 16:32 KHYR 181632Z AUTO 19011KT 5SM BR SCT008 OVC034 M02/M04 A2974 RMK AO2 T10221044
 
KARV - Minocqua/Woodruf, Wisconsin, USA
Distance from station: E 44mi, 71km
Updated: 12/18/2017 10:35am
Mist, Overcast
Mist, Overcast
 Wind from SW
Wind: SW 7 mph , 11 km/h
Temperature: 28°F , -2°C
Wind Chill: 21°F , -6°C
Dew Point: 27°F , -3°C
Humidity: 93%
Barometer: 29.73 inHg , 1006.8 hPa
Summary: Mist
Clouds: Overcast
Visibility: 3 miles , 5 km
Cloud details: Overcast 300 ft
2017/12/18 16:35 KARV 181635Z AUTO 22006KT 3SM BR OVC003 M02/M03 A2973 RMK AO2 T10201027
KTKV - Tomahawk Regnl, Wisconsin, USA
Distance from station: ESE 46mi, 74km
Updated: 12/18/2017 10:35am
Mist, Overcast
Mist, Overcast
 Wind from SSW
Wind: SSW 5 mph , 7 km/h
Temperature: 27°F , -3°C
Wind Chill: 21°F , -6°C
Dew Point: 25°F , -4°C
Humidity: 93%
Barometer: 29.77 inHg , 1008.1 hPa
Summary: Mist
Clouds: Overcast
Visibility: 3 miles , 5 km
Cloud details: Overcast 400 ft
2017/12/18 16:35 KTKV 181635Z AUTO 21004KT 3SM BR OVC004 M03/M04 A2977 RMK AO2 T10301036